<?xml version="1.0" encoding="UTF-8" standalone="no" ?><gpx xmlns="http://www.topografix.com/GPX/1/1" xmlns:gpxx="http://www.garmin.com/xmlschemas/GpxExtensions/v3" xmlns:wptx1="http://www.garmin.com/xmlschemas/WaypointExtension/v1" xmlns:gpxtpx="http://www.garmin.com/xmlschemas/TrackPointExtension/v1" creator="GuideVTT.com" version="1.1" xmlns:xsi="http://www.w3.org/2001/XMLSchema-instance" xsi:schemaLocation="http://www.topografix.com/GPX/1/1 http://www.topografix.com/GPX/1/1/gpx.xsd http://www.garmin.com/xmlschemas/GpxExtensions/v3 http://www8.garmin.com/xmlschemas/GpxExtensionsv3.xsd http://www.garmin.com/xmlschemas/WaypointExtension/v1 http://www8.garmin.com/xmlschemas/WaypointExtensionv1.xsd http://www.garmin.com/xmlschemas/TrackPointExtension/v1 http://www.garmin.com/xmlschemas/TrackPointExtensionv1.xsd">
<metadata><link href="http://www.garmin.com"><text>Garmin International</text></link><time>2013-06-22T15:13:50Z</time></metadata>
<trk><name>rossens-les-fontaines.gpx</name><extensions><gpxx:TrackExtension><gpxx:DisplayColor>Cyan</gpxx:DisplayColor></gpxx:TrackExtension></extensions><trkseg>
<trkpt lat="46.717508" lon="7.099858"><ele></ele><time>2019-8-28T16:33:31Z</time></trkpt>
<trkpt lat="46.716387" lon="7.098190"><ele></ele><time>2019-8-28T16:33:34Z</time></trkpt>
<trkpt lat="46.716006" lon="7.096937"><ele></ele><time>2019-8-28T16:33:37Z</time></trkpt>
<trkpt lat="46.717218" lon="7.093385"><ele></ele><time>2019-8-28T16:33:40Z</time></trkpt>
<trkpt lat="46.716585" lon="7.092186"><ele></ele><time>2019-8-28T16:33:43Z</time></trkpt>
<trkpt lat="46.715372" lon="7.092835"><ele></ele><time>2019-8-28T16:33:46Z</time></trkpt>
<trkpt lat="46.714848" lon="7.092014"><ele></ele><time>2019-8-28T16:33:49Z</time></trkpt>
<trkpt lat="46.713194" lon="7.092352"><ele></ele><time>2019-8-28T16:33:52Z</time></trkpt>
<trkpt lat="46.711094" lon="7.090887"><ele></ele><time>2019-8-28T16:33:55Z</time></trkpt>
<trkpt lat="46.709681" lon="7.087967"><ele></ele><time>2019-8-28T16:33:58Z</time></trkpt>
<trkpt lat="46.709285" lon="7.084936"><ele></ele><time>2019-8-28T16:34:1Z</time></trkpt>
<trkpt lat="46.707031" lon="7.083264"><ele></ele><time>2019-8-28T16:34:4Z</time></trkpt>
<trkpt lat="46.706041" lon="7.083022"><ele></ele><time>2019-8-28T16:34:7Z</time></trkpt>
<trkpt lat="46.702849" lon="7.083487"><ele></ele><time>2019-8-28T16:34:10Z</time></trkpt>
<trkpt lat="46.701526" lon="7.086098"><ele></ele><time>2019-8-28T16:34:13Z</time></trkpt>
<trkpt lat="46.699525" lon="7.087733"><ele></ele><time>2019-8-28T16:34:16Z</time></trkpt>
<trkpt lat="46.697327" lon="7.086976"><ele></ele><time>2019-8-28T16:34:19Z</time></trkpt>
<trkpt lat="46.695937" lon="7.085377"><ele></ele><time>2019-8-28T16:34:22Z</time></trkpt>
<trkpt lat="46.694632" lon="7.085176"><ele></ele><time>2019-8-28T16:34:25Z</time></trkpt>
<trkpt lat="46.692801" lon="7.086351"><ele></ele><time>2019-8-28T16:34:28Z</time></trkpt>
<trkpt lat="46.692300" lon="7.087388"><ele></ele><time>2019-8-28T16:34:31Z</time></trkpt>
<trkpt lat="46.690909" lon="7.094273"><ele></ele><time>2019-8-28T16:34:34Z</time></trkpt>
<trkpt lat="46.690379" lon="7.094472"><ele></ele><time>2019-8-28T16:34:37Z</time></trkpt>
<trkpt lat="46.688371" lon="7.093766"><ele></ele><time>2019-8-28T16:34:40Z</time></trkpt>
<trkpt lat="46.687797" lon="7.094515"><ele></ele><time>2019-8-28T16:34:43Z</time></trkpt>
<trkpt lat="46.687497" lon="7.096295"><ele></ele><time>2019-8-28T16:34:46Z</time></trkpt>
<trkpt lat="46.686706" lon="7.096496"><ele></ele><time>2019-8-28T16:34:49Z</time></trkpt>
<trkpt lat="46.680658" lon="7.083778"><ele></ele><time>2019-8-28T16:34:52Z</time></trkpt>
<trkpt lat="46.678694" lon="7.080249"><ele></ele><time>2019-8-28T16:34:55Z</time></trkpt>
<trkpt lat="46.672164" lon="7.077496"><ele></ele><time>2019-8-28T16:34:58Z</time></trkpt>
<trkpt lat="46.670598" lon="7.077219"><ele></ele><time>2019-8-28T16:35:1Z</time></trkpt>
<trkpt lat="46.663950" lon="7.074323"><ele></ele><time>2019-8-28T16:35:4Z</time></trkpt>
<trkpt lat="46.660304" lon="7.073420"><ele></ele><time>2019-8-28T16:35:7Z</time></trkpt>
<trkpt lat="46.656634" lon="7.073667"><ele></ele><time>2019-8-28T16:35:10Z</time></trkpt>
<trkpt lat="46.654391" lon="7.072663"><ele></ele><time>2019-8-28T16:35:13Z</time></trkpt>
<trkpt lat="46.650947" lon="7.070309"><ele></ele><time>2019-8-28T16:35:16Z</time></trkpt>
<trkpt lat="46.650724" lon="7.070755"><ele></ele><time>2019-8-28T16:35:19Z</time></trkpt>
<trkpt lat="46.649287" lon="7.071444"><ele></ele><time>2019-8-28T16:35:22Z</time></trkpt>
<trkpt lat="46.648313" lon="7.073449"><ele></ele><time>2019-8-28T16:35:25Z</time></trkpt>
<trkpt lat="46.647630" lon="7.073833"><ele></ele><time>2019-8-28T16:35:28Z</time></trkpt>
<trkpt lat="46.648412" lon="7.073684"><ele></ele><time>2019-8-28T16:35:31Z</time></trkpt>
<trkpt lat="46.647764" lon="7.073571"><ele></ele><time>2019-8-28T16:35:34Z</time></trkpt>
<trkpt lat="46.645785" lon="7.076196"><ele></ele><time>2019-8-28T16:35:37Z</time></trkpt>
<trkpt lat="46.646282" lon="7.076859"><ele></ele><time>2019-8-28T16:35:40Z</time></trkpt>
<trkpt lat="46.646167" lon="7.077657"><ele></ele><time>2019-8-28T16:35:43Z</time></trkpt>
<trkpt lat="46.646291" lon="7.076859"><ele></ele><time>2019-8-28T16:35:46Z</time></trkpt>
<trkpt lat="46.645821" lon="7.076183"><ele></ele><time>2019-8-28T16:35:49Z</time></trkpt>
<trkpt lat="46.645873" lon="7.075791"><ele></ele><time>2019-8-28T16:35:52Z</time></trkpt>
<trkpt lat="46.645459" lon="7.075572"><ele></ele><time>2019-8-28T16:35:55Z</time></trkpt>
<trkpt lat="46.644354" lon="7.075945"><ele></ele><time>2019-8-28T16:35:58Z</time></trkpt>
<trkpt lat="46.641735" lon="7.075688"><ele></ele><time>2019-8-28T16:36:1Z</time></trkpt>
<trkpt lat="46.641009" lon="7.076660"><ele></ele><time>2019-8-28T16:36:4Z</time></trkpt>
<trkpt lat="46.639777" lon="7.079541"><ele></ele><time>2019-8-28T16:36:7Z</time></trkpt>
<trkpt lat="46.638595" lon="7.081077"><ele></ele><time>2019-8-28T16:36:10Z</time></trkpt>
<trkpt lat="46.636769" lon="7.081168"><ele></ele><time>2019-8-28T16:36:13Z</time></trkpt>
<trkpt lat="46.635912" lon="7.080337"><ele></ele><time>2019-8-28T16:36:16Z</time></trkpt>
<trkpt lat="46.635271" lon="7.082732"><ele></ele><time>2019-8-28T16:36:19Z</time></trkpt>
<trkpt lat="46.633523" lon="7.084532"><ele></ele><time>2019-8-28T16:36:22Z</time></trkpt>
<trkpt lat="46.632616" lon="7.084982"><ele></ele><time>2019-8-28T16:36:25Z</time></trkpt>
<trkpt lat="46.631334" lon="7.086466"><ele></ele><time>2019-8-28T16:36:28Z</time></trkpt>
<trkpt lat="46.630336" lon="7.086747"><ele></ele><time>2019-8-28T16:36:31Z</time></trkpt>
<trkpt lat="46.629700" lon="7.087391"><ele></ele><time>2019-8-28T16:36:34Z</time></trkpt>
<trkpt lat="46.628999" lon="7.087539"><ele></ele><time>2019-8-28T16:36:37Z</time></trkpt>
<trkpt lat="46.628272" lon="7.088314"><ele></ele><time>2019-8-28T16:36:40Z</time></trkpt>
<trkpt lat="46.624438" lon="7.084775"><ele></ele><time>2019-8-28T16:36:43Z</time></trkpt>
<trkpt lat="46.623155" lon="7.085671"><ele></ele><time>2019-8-28T16:36:46Z</time></trkpt>
<trkpt lat="46.621786" lon="7.085262"><ele></ele><time>2019-8-28T16:36:49Z</time></trkpt>
<trkpt lat="46.621329" lon="7.086009"><ele></ele><time>2019-8-28T16:36:52Z</time></trkpt>
<trkpt lat="46.620475" lon="7.086119"><ele></ele><time>2019-8-28T16:36:55Z</time></trkpt>
<trkpt lat="46.620018" lon="7.086579"><ele></ele><time>2019-8-28T16:36:58Z</time></trkpt>
<trkpt lat="46.619431" lon="7.085774"><ele></ele><time>2019-8-28T16:37:1Z</time></trkpt>
<trkpt lat="46.619248" lon="7.084835"><ele></ele><time>2019-8-28T16:37:4Z</time></trkpt>
<trkpt lat="46.618129" lon="7.083811"><ele></ele><time>2019-8-28T16:37:7Z</time></trkpt>
<trkpt lat="46.617418" lon="7.083672"><ele></ele><time>2019-8-28T16:37:10Z</time></trkpt>
<trkpt lat="46.615641" lon="7.082013"><ele></ele><time>2019-8-28T16:37:13Z</time></trkpt>
<trkpt lat="46.613744" lon="7.082547"><ele></ele><time>2019-8-28T16:37:16Z</time></trkpt>
<trkpt lat="46.614044" lon="7.083577"><ele></ele><time>2019-8-28T16:37:19Z</time></trkpt>
<trkpt lat="46.616008" lon="7.084373"><ele></ele><time>2019-8-28T16:37:22Z</time></trkpt>
<trkpt lat="46.616651" lon="7.085701"><ele></ele><time>2019-8-28T16:37:25Z</time></trkpt>
<trkpt lat="46.615913" lon="7.085784"><ele></ele><time>2019-8-28T16:37:28Z</time></trkpt>
<trkpt lat="46.613716" lon="7.088030"><ele></ele><time>2019-8-28T16:37:31Z</time></trkpt>
<trkpt lat="46.610847" lon="7.085151"><ele></ele><time>2019-8-28T16:37:34Z</time></trkpt>
<trkpt lat="46.608823" lon="7.085138"><ele></ele><time>2019-8-28T16:37:37Z</time></trkpt>
<trkpt lat="46.608196" lon="7.086017"><ele></ele><time>2019-8-28T16:37:40Z</time></trkpt>
<trkpt lat="46.606880" lon="7.085086"><ele></ele><time>2019-8-28T16:37:43Z</time></trkpt>
<trkpt lat="46.605851" lon="7.086868"><ele></ele><time>2019-8-28T16:37:46Z</time></trkpt>
<trkpt lat="46.605317" lon="7.088725"><ele></ele><time>2019-8-28T16:37:49Z</time></trkpt>
<trkpt lat="46.604249" lon="7.089515"><ele></ele><time>2019-8-28T16:37:52Z</time></trkpt>
<trkpt lat="46.603752" lon="7.089061"><ele></ele><time>2019-8-28T16:37:55Z</time></trkpt>
<trkpt lat="46.603411" lon="7.089298"><ele></ele><time>2019-8-28T16:37:58Z</time></trkpt>
<trkpt lat="46.603212" lon="7.091662"><ele></ele><time>2019-8-28T16:38:1Z</time></trkpt>
<trkpt lat="46.602334" lon="7.092816"><ele></ele><time>2019-8-28T16:38:4Z</time></trkpt>
<trkpt lat="46.602471" lon="7.093585"><ele></ele><time>2019-8-28T16:38:7Z</time></trkpt>
<trkpt lat="46.603058" lon="7.094365"><ele></ele><time>2019-8-28T16:38:10Z</time></trkpt>
<trkpt lat="46.602386" lon="7.095100"><ele></ele><time>2019-8-28T16:38:13Z</time></trkpt>
<trkpt lat="46.602029" lon="7.096264"><ele></ele><time>2019-8-28T16:38:16Z</time></trkpt>
<trkpt lat="46.596712" lon="7.099012"><ele></ele><time>2019-8-28T16:38:19Z</time></trkpt>
<trkpt lat="46.595058" lon="7.099270"><ele></ele><time>2019-8-28T16:38:22Z</time></trkpt>
<trkpt lat="46.594282" lon="7.098583"><ele></ele><time>2019-8-28T16:38:25Z</time></trkpt>
<trkpt lat="46.593544" lon="7.098588"><ele></ele><time>2019-8-28T16:38:28Z</time></trkpt>
<trkpt lat="46.589820" lon="7.101534"><ele></ele><time>2019-8-28T16:38:31Z</time></trkpt>
<trkpt lat="46.587794" lon="7.100751"><ele></ele><time>2019-8-28T16:38:34Z</time></trkpt>
<trkpt lat="46.586016" lon="7.098988"><ele></ele><time>2019-8-28T16:38:37Z</time></trkpt>
<trkpt lat="46.583557" lon="7.094828"><ele></ele><time>2019-8-28T16:38:40Z</time></trkpt>
<trkpt lat="46.582655" lon="7.093908"><ele></ele><time>2019-8-28T16:38:43Z</time></trkpt>
<trkpt lat="46.581847" lon="7.094526"><ele></ele><time>2019-8-28T16:38:46Z</time></trkpt>
<trkpt lat="46.579863" lon="7.092960"><ele></ele><time>2019-8-28T16:38:49Z</time></trkpt>
<trkpt lat="46.579126" lon="7.093043"><ele></ele><time>2019-8-28T16:38:52Z</time></trkpt>
<trkpt lat="46.575316" lon="7.091580"><ele></ele><time>2019-8-28T16:38:55Z</time></trkpt>
<trkpt lat="46.572025" lon="7.091902"><ele></ele><time>2019-8-28T16:38:58Z</time></trkpt>
<trkpt lat="46.571414" lon="7.092388"><ele></ele><time>2019-8-28T16:39:1Z</time></trkpt>
<trkpt lat="46.569577" lon="7.091800"><ele></ele><time>2019-8-28T16:39:4Z</time></trkpt>
<trkpt lat="46.567697" lon="7.091799"><ele></ele><time>2019-8-28T16:39:7Z</time></trkpt>
<trkpt lat="46.567066" lon="7.091190"><ele></ele><time>2019-8-28T16:39:10Z</time></trkpt>
<trkpt lat="46.565337" lon="7.090784"><ele></ele><time>2019-8-28T16:39:13Z</time></trkpt>
<trkpt lat="46.564940" lon="7.090317"><ele></ele><time>2019-8-28T16:39:16Z</time></trkpt>
<trkpt lat="46.560149" lon="7.088731"><ele></ele><time>2019-8-28T16:39:19Z</time></trkpt>
<trkpt lat="46.557706" lon="7.086921"><ele></ele><time>2019-8-28T16:39:22Z</time></trkpt>
<trkpt lat="46.555854" lon="7.084338"><ele></ele><time>2019-8-28T16:39:25Z</time></trkpt>
<trkpt lat="46.555106" lon="7.083926"><ele></ele><time>2019-8-28T16:39:28Z</time></trkpt>
<trkpt lat="46.554924" lon="7.083418"><ele></ele><time>2019-8-28T16:39:31Z</time></trkpt>
<trkpt lat="46.552480" lon="7.081283"><ele></ele><time>2019-8-28T16:39:34Z</time></trkpt>
<trkpt lat="46.550973" lon="7.085648"><ele></ele><time>2019-8-28T16:39:37Z</time></trkpt>
<trkpt lat="46.549539" lon="7.087404"><ele></ele><time>2019-8-28T16:39:40Z</time></trkpt>
<trkpt lat="46.547099" lon="7.092479"><ele></ele><time>2019-8-28T16:39:43Z</time></trkpt>
<trkpt lat="46.548497" lon="7.093474"><ele></ele><time>2019-8-28T16:39:46Z</time></trkpt>
<trkpt lat="46.550665" lon="7.093578"><ele></ele><time>2019-8-28T16:39:49Z</time></trkpt>
<trkpt lat="46.549695" lon="7.093975"><ele></ele><time>2019-8-28T16:39:52Z</time></trkpt>
<trkpt lat="46.551117" lon="7.094461"><ele></ele><time>2019-8-28T16:39:55Z</time></trkpt>
<trkpt lat="46.553042" lon="7.097174"><ele></ele><time>2019-8-28T16:39:58Z</time></trkpt>
<trkpt lat="46.554430" lon="7.098157"><ele></ele><time>2019-8-28T16:40:1Z</time></trkpt>
<trkpt lat="46.555856" lon="7.099751"><ele></ele><time>2019-8-28T16:40:4Z</time></trkpt>
<trkpt lat="46.556567" lon="7.099995"><ele></ele><time>2019-8-28T16:40:7Z</time></trkpt>
<trkpt lat="46.557168" lon="7.102377"><ele></ele><time>2019-8-28T16:40:10Z</time></trkpt>
<trkpt lat="46.556874" lon="7.103227"><ele></ele><time>2019-8-28T16:40:13Z</time></trkpt>
<trkpt lat="46.555128" lon="7.102925"><ele></ele><time>2019-8-28T16:40:16Z</time></trkpt>
<trkpt lat="46.554317" lon="7.102395"><ele></ele><time>2019-8-28T16:40:19Z</time></trkpt>
<trkpt lat="46.553156" lon="7.102259"><ele></ele><time>2019-8-28T16:40:22Z</time></trkpt>
<trkpt lat="46.550785" lon="7.100553"><ele></ele><time>2019-8-28T16:40:25Z</time></trkpt>
<trkpt lat="46.549930" lon="7.100467"><ele></ele><time>2019-8-28T16:40:28Z</time></trkpt>
<trkpt lat="46.549793" lon="7.099868"><ele></ele><time>2019-8-28T16:40:31Z</time></trkpt>
<trkpt lat="46.546030" lon="7.098796"><ele></ele><time>2019-8-28T16:40:34Z</time></trkpt>
<trkpt lat="46.540859" lon="7.096456"><ele></ele><time>2019-8-28T16:40:37Z</time></trkpt>
<trkpt lat="46.538200" lon="7.094752"><ele></ele><time>2019-8-28T16:40:40Z</time></trkpt>
<trkpt lat="46.537099" lon="7.093495"><ele></ele><time>2019-8-28T16:40:43Z</time></trkpt>
<trkpt lat="46.537061" lon="7.092922"><ele></ele><time>2019-8-28T16:40:46Z</time></trkpt>
<trkpt lat="46.536133" lon="7.092158"><ele></ele><time>2019-8-28T16:40:49Z</time></trkpt>
<trkpt lat="46.536449" lon="7.092600"><ele></ele><time>2019-8-28T16:40:52Z</time></trkpt>
<trkpt lat="46.535532" lon="7.092775"><ele></ele><time>2019-8-28T16:40:55Z</time></trkpt>
<trkpt lat="46.534675" lon="7.092129"><ele></ele><time>2019-8-28T16:40:58Z</time></trkpt>
<trkpt lat="46.533334" lon="7.091903"><ele></ele><time>2019-8-28T16:41:1Z</time></trkpt>
<trkpt lat="46.532301" lon="7.092313"><ele></ele><time>2019-8-28T16:41:4Z</time></trkpt>
<trkpt lat="46.531837" lon="7.093528"><ele></ele><time>2019-8-28T16:41:7Z</time></trkpt>
<trkpt lat="46.530849" lon="7.094017"><ele></ele><time>2019-8-28T16:41:10Z</time></trkpt>
<trkpt lat="46.529387" lon="7.092684"><ele></ele><time>2019-8-28T16:41:13Z</time></trkpt>
<trkpt lat="46.528668" lon="7.092702"><ele></ele><time>2019-8-28T16:41:16Z</time></trkpt>
<trkpt lat="46.527906" lon="7.093658"><ele></ele><time>2019-8-28T16:41:19Z</time></trkpt>
<trkpt lat="46.527273" lon="7.095513"><ele></ele><time>2019-8-28T16:41:22Z</time></trkpt>
<trkpt lat="46.526535" lon="7.095543"><ele></ele><time>2019-8-28T16:41:25Z</time></trkpt>
<trkpt lat="46.526933" lon="7.096023"><ele></ele><time>2019-8-28T16:41:28Z</time></trkpt>
<trkpt lat="46.526854" lon="7.096845"><ele></ele><time>2019-8-28T16:41:31Z</time></trkpt>
<trkpt lat="46.526100" lon="7.097371"><ele></ele><time>2019-8-28T16:41:34Z</time></trkpt>
<trkpt lat="46.525522" lon="7.099538"><ele></ele><time>2019-8-28T16:41:37Z</time></trkpt>
<trkpt lat="46.525785" lon="7.100383"><ele></ele><time>2019-8-28T16:41:40Z</time></trkpt>
<trkpt lat="46.525608" lon="7.101127"><ele></ele><time>2019-8-28T16:41:43Z</time></trkpt>
<trkpt lat="46.524244" lon="7.102348"><ele></ele><time>2019-8-28T16:41:46Z</time></trkpt>
<trkpt lat="46.523394" lon="7.103774"><ele></ele><time>2019-8-28T16:41:49Z</time></trkpt>
<trkpt lat="46.522523" lon="7.104431"><ele></ele><time>2019-8-28T16:41:52Z</time></trkpt>
<trkpt lat="46.520803" lon="7.106983"><ele></ele><time>2019-8-28T16:41:55Z</time></trkpt>
<trkpt lat="46.520518" lon="7.107949"><ele></ele><time>2019-8-28T16:41:58Z</time></trkpt>
<trkpt lat="46.519898" lon="7.108174"><ele></ele><time>2019-8-28T16:42:1Z</time></trkpt>
<trkpt lat="46.519923" lon="7.107418"><ele></ele><time>2019-8-28T16:42:4Z</time></trkpt>
<trkpt lat="46.517733" lon="7.109074"><ele></ele><time>2019-8-28T16:42:7Z</time></trkpt>
<trkpt lat="46.517466" lon="7.110183"><ele></ele><time>2019-8-28T16:42:10Z</time></trkpt>
<trkpt lat="46.517088" lon="7.109937"><ele></ele><time>2019-8-28T16:42:13Z</time></trkpt>
<trkpt lat="46.516055" lon="7.110413"><ele></ele><time>2019-8-28T16:42:16Z</time></trkpt>
<trkpt lat="46.516024" lon="7.109084"><ele></ele><time>2019-8-28T16:42:19Z</time></trkpt>
<trkpt lat="46.515240" lon="7.111877"><ele></ele><time>2019-8-28T16:42:22Z</time></trkpt>
<trkpt lat="46.515694" lon="7.113334"><ele></ele><time>2019-8-28T16:42:25Z</time></trkpt>
<trkpt lat="46.515552" lon="7.113765"><ele></ele><time>2019-8-28T16:42:28Z</time></trkpt>
<trkpt lat="46.515003" lon="7.113794"><ele></ele><time>2019-8-28T16:42:31Z</time></trkpt>
<trkpt lat="46.514469" lon="7.112703"><ele></ele><time>2019-8-28T16:42:34Z</time></trkpt>
<trkpt lat="46.513043" lon="7.111031"><ele></ele><time>2019-8-28T16:42:37Z</time></trkpt>
<trkpt lat="46.513152" lon="7.111330"><ele></ele><time>2019-8-28T16:42:40Z</time></trkpt>
<trkpt lat="46.509482" lon="7.108525"><ele></ele><time>2019-8-28T16:42:43Z</time></trkpt>
<trkpt lat="46.509957" lon="7.107909"><ele></ele><time>2019-8-28T16:42:46Z</time></trkpt>
<trkpt lat="46.511099" lon="7.107798"><ele></ele><time>2019-8-28T16:42:49Z</time></trkpt>
<trkpt lat="46.509883" lon="7.107232"><ele></ele><time>2019-8-28T16:42:52Z</time></trkpt>
<trkpt lat="46.512607" lon="7.106694"><ele></ele><time>2019-8-28T16:42:55Z</time></trkpt>
<trkpt lat="46.512246" lon="7.106227"><ele></ele><time>2019-8-28T16:42:58Z</time></trkpt>
<trkpt lat="46.512226" lon="7.105589"><ele></ele><time>2019-8-28T16:43:1Z</time></trkpt>
<trkpt lat="46.513166" lon="7.103929"><ele></ele><time>2019-8-28T16:43:4Z</time></trkpt>
<trkpt lat="46.513272" lon="7.103224"><ele></ele><time>2019-8-28T16:43:7Z</time></trkpt>
<trkpt lat="46.512703" lon="7.102355"><ele></ele><time>2019-8-28T16:43:10Z</time></trkpt>
<trkpt lat="46.513206" lon="7.102404"><ele></ele><time>2019-8-28T16:43:13Z</time></trkpt>
<trkpt lat="46.513394" lon="7.101894"><ele></ele><time>2019-8-28T16:43:16Z</time></trkpt>
<trkpt lat="46.512454" lon="7.100454"><ele></ele><time>2019-8-28T16:43:19Z</time></trkpt>
<trkpt lat="46.512389" lon="7.099855"><ele></ele><time>2019-8-28T16:43:22Z</time></trkpt>
<trkpt lat="46.512659" lon="7.099918"><ele></ele><time>2019-8-28T16:43:25Z</time></trkpt>
<trkpt lat="46.512477" lon="7.099138"><ele></ele><time>2019-8-28T16:43:28Z</time></trkpt>
<trkpt lat="46.513630" lon="7.099639"><ele></ele><time>2019-8-28T16:43:31Z</time></trkpt>
<trkpt lat="46.512477" lon="7.099112"><ele></ele><time>2019-8-28T16:43:34Z</time></trkpt>
<trkpt lat="46.512668" lon="7.099866"><ele></ele><time>2019-8-28T16:43:37Z</time></trkpt>
<trkpt lat="46.512416" lon="7.099855"><ele></ele><time>2019-8-28T16:43:40Z</time></trkpt>
<trkpt lat="46.512463" lon="7.100389"><ele></ele><time>2019-8-28T16:43:43Z</time></trkpt>
<trkpt lat="46.513430" lon="7.101959"><ele></ele><time>2019-8-28T16:43:46Z</time></trkpt>
<trkpt lat="46.513198" lon="7.102417"><ele></ele><time>2019-8-28T16:43:49Z</time></trkpt>
<trkpt lat="46.512685" lon="7.102459"><ele></ele><time>2019-8-28T16:43:52Z</time></trkpt>
<trkpt lat="46.513290" lon="7.103211"><ele></ele><time>2019-8-28T16:43:55Z</time></trkpt>
<trkpt lat="46.513122" lon="7.104098"><ele></ele><time>2019-8-28T16:43:58Z</time></trkpt>
<trkpt lat="46.512173" lon="7.105785"><ele></ele><time>2019-8-28T16:44:1Z</time></trkpt>
<trkpt lat="46.512608" lon="7.106720"><ele></ele><time>2019-8-28T16:44:4Z</time></trkpt>
<trkpt lat="46.509856" lon="7.107115"><ele></ele><time>2019-8-28T16:44:7Z</time></trkpt>
<trkpt lat="46.511081" lon="7.107746"><ele></ele><time>2019-8-28T16:44:10Z</time></trkpt>
<trkpt lat="46.509742" lon="7.108028"><ele></ele><time>2019-8-28T16:44:13Z</time></trkpt>
<trkpt lat="46.509501" lon="7.108616"><ele></ele><time>2019-8-28T16:44:16Z</time></trkpt>
<trkpt lat="46.514532" lon="7.112715"><ele></ele><time>2019-8-28T16:44:19Z</time></trkpt>
<trkpt lat="46.514985" lon="7.113742"><ele></ele><time>2019-8-28T16:44:22Z</time></trkpt>
<trkpt lat="46.515614" lon="7.113660"><ele></ele><time>2019-8-28T16:44:25Z</time></trkpt>
<trkpt lat="46.515314" lon="7.112424"><ele></ele><time>2019-8-28T16:44:28Z</time></trkpt>
<trkpt lat="46.515728" lon="7.112435"><ele></ele><time>2019-8-28T16:44:31Z</time></trkpt>
<trkpt lat="46.515644" lon="7.111497"><ele></ele><time>2019-8-28T16:44:34Z</time></trkpt>
<trkpt lat="46.517114" lon="7.109625"><ele></ele><time>2019-8-28T16:44:37Z</time></trkpt>
<trkpt lat="46.517510" lon="7.109583"><ele></ele><time>2019-8-28T16:44:40Z</time></trkpt>
<trkpt lat="46.517760" lon="7.109073"><ele></ele><time>2019-8-28T16:44:43Z</time></trkpt>
<trkpt lat="46.519663" lon="7.107824"><ele></ele><time>2019-8-28T16:44:46Z</time></trkpt>
<trkpt lat="46.520432" lon="7.106008"><ele></ele><time>2019-8-28T16:44:49Z</time></trkpt>
<trkpt lat="46.521132" lon="7.102393"><ele></ele><time>2019-8-28T16:44:52Z</time></trkpt>
<trkpt lat="46.520791" lon="7.099620"><ele></ele><time>2019-8-28T16:44:55Z</time></trkpt>
<trkpt lat="46.521282" lon="7.098522"><ele></ele><time>2019-8-28T16:44:58Z</time></trkpt>
<trkpt lat="46.520900" lon="7.097182"><ele></ele><time>2019-8-28T16:45:1Z</time></trkpt>
<trkpt lat="46.521144" lon="7.097637"><ele></ele><time>2019-8-28T16:45:4Z</time></trkpt>
<trkpt lat="46.520954" lon="7.097052"><ele></ele><time>2019-8-28T16:45:7Z</time></trkpt>
<trkpt lat="46.520468" lon="7.096950"><ele></ele><time>2019-8-28T16:45:10Z</time></trkpt>
<trkpt lat="46.520538" lon="7.096337"><ele></ele><time>2019-8-28T16:45:13Z</time></trkpt>
<trkpt lat="46.518139" lon="7.094541"><ele></ele><time>2019-8-28T16:45:16Z</time></trkpt>
<trkpt lat="46.517218" lon="7.093231"><ele></ele><time>2019-8-28T16:45:19Z</time></trkpt>
<trkpt lat="46.515225" lon="7.091602"><ele></ele><time>2019-8-28T16:45:22Z</time></trkpt>
<trkpt lat="46.515691" lon="7.091169"><ele></ele><time>2019-8-28T16:45:25Z</time></trkpt>
<trkpt lat="46.515994" lon="7.090098"><ele></ele><time>2019-8-28T16:45:28Z</time></trkpt>
<trkpt lat="46.517800" lon="7.089383"><ele></ele><time>2019-8-28T16:45:31Z</time></trkpt>
<trkpt lat="46.518457" lon="7.089509"><ele></ele><time>2019-8-28T16:45:34Z</time></trkpt>
<trkpt lat="46.519605" lon="7.088290"><ele></ele><time>2019-8-28T16:45:37Z</time></trkpt>
<trkpt lat="46.519504" lon="7.087913"><ele></ele><time>2019-8-28T16:45:40Z</time></trkpt>
<trkpt lat="46.520771" lon="7.087266"><ele></ele><time>2019-8-28T16:45:43Z</time></trkpt>
<trkpt lat="46.518626" lon="7.085925"><ele></ele><time>2019-8-28T16:45:46Z</time></trkpt>
<trkpt lat="46.516378" lon="7.086239"><ele></ele><time>2019-8-28T16:45:49Z</time></trkpt>
<trkpt lat="46.515024" lon="7.084827"><ele></ele><time>2019-8-28T16:45:52Z</time></trkpt>
<trkpt lat="46.516332" lon="7.086109"><ele></ele><time>2019-8-28T16:45:55Z</time></trkpt>
<trkpt lat="46.518653" lon="7.085859"><ele></ele><time>2019-8-28T16:45:58Z</time></trkpt>
<trkpt lat="46.520780" lon="7.087253"><ele></ele><time>2019-8-28T16:46:1Z</time></trkpt>
<trkpt lat="46.519469" lon="7.088056"><ele></ele><time>2019-8-28T16:46:4Z</time></trkpt>
<trkpt lat="46.521263" lon="7.089296"><ele></ele><time>2019-8-28T16:46:7Z</time></trkpt>
<trkpt lat="46.521722" lon="7.089240"><ele></ele><time>2019-8-28T16:46:10Z</time></trkpt>
<trkpt lat="46.522425" lon="7.089888"><ele></ele><time>2019-8-28T16:46:13Z</time></trkpt>
<trkpt lat="46.524253" lon="7.090345"><ele></ele><time>2019-8-28T16:46:16Z</time></trkpt>
<trkpt lat="46.524486" lon="7.090083"><ele></ele><time>2019-8-28T16:46:19Z</time></trkpt>
<trkpt lat="46.524281" lon="7.087973"><ele></ele><time>2019-8-28T16:46:22Z</time></trkpt>
<trkpt lat="46.524512" lon="7.086942"><ele></ele><time>2019-8-28T16:46:25Z</time></trkpt>
<trkpt lat="46.523537" lon="7.085697"><ele></ele><time>2019-8-28T16:46:28Z</time></trkpt>
<trkpt lat="46.523316" lon="7.084134"><ele></ele><time>2019-8-28T16:46:31Z</time></trkpt>
<trkpt lat="46.521227" lon="7.080773"><ele></ele><time>2019-8-28T16:46:34Z</time></trkpt>
<trkpt lat="46.521068" lon="7.078689"><ele></ele><time>2019-8-28T16:46:37Z</time></trkpt>
<trkpt lat="46.520228" lon="7.077717"><ele></ele><time>2019-8-28T16:46:40Z</time></trkpt>
<trkpt lat="46.518976" lon="7.077152"><ele></ele><time>2019-8-28T16:46:43Z</time></trkpt>
<trkpt lat="46.518470" lon="7.076348"><ele></ele><time>2019-8-28T16:46:46Z</time></trkpt>
<trkpt lat="46.519675" lon="7.076431"><ele></ele><time>2019-8-28T16:46:49Z</time></trkpt>
<trkpt lat="46.521379" lon="7.077540"><ele></ele><time>2019-8-28T16:46:52Z</time></trkpt>
<trkpt lat="46.520647" lon="7.076411"><ele></ele><time>2019-8-28T16:46:55Z</time></trkpt>
<trkpt lat="46.519186" lon="7.075339"><ele></ele><time>2019-8-28T16:46:58Z</time></trkpt>
<trkpt lat="46.518174" lon="7.073913"><ele></ele><time>2019-8-28T16:47:1Z</time></trkpt>
<trkpt lat="46.519227" lon="7.074192"><ele></ele><time>2019-8-28T16:47:4Z</time></trkpt>
<trkpt lat="46.521436" lon="7.075676"><ele></ele><time>2019-8-28T16:47:7Z</time></trkpt>
<trkpt lat="46.523304" lon="7.077475"><ele></ele><time>2019-8-28T16:47:10Z</time></trkpt>
<trkpt lat="46.525720" lon="7.079101"><ele></ele><time>2019-8-28T16:47:13Z</time></trkpt>
<trkpt lat="46.526734" lon="7.081075"><ele></ele><time>2019-8-28T16:47:16Z</time></trkpt>
<trkpt lat="46.528924" lon="7.082573"><ele></ele><time>2019-8-28T16:47:19Z</time></trkpt>
<trkpt lat="46.529430" lon="7.083338"><ele></ele><time>2019-8-28T16:47:22Z</time></trkpt>
<trkpt lat="46.530728" lon="7.083877"><ele></ele><time>2019-8-28T16:47:25Z</time></trkpt>
<trkpt lat="46.531929" lon="7.085433"><ele></ele><time>2019-8-28T16:47:28Z</time></trkpt>
<trkpt lat="46.534634" lon="7.087462"><ele></ele><time>2019-8-28T16:47:31Z</time></trkpt>
<trkpt lat="46.535864" lon="7.086750"><ele></ele><time>2019-8-28T16:47:34Z</time></trkpt>
<trkpt lat="46.535894" lon="7.087728"><ele></ele><time>2019-8-28T16:47:37Z</time></trkpt>
<trkpt lat="46.536625" lon="7.088323"><ele></ele><time>2019-8-28T16:47:40Z</time></trkpt>
<trkpt lat="46.536420" lon="7.089197"><ele></ele><time>2019-8-28T16:47:43Z</time></trkpt>
<trkpt lat="46.539340" lon="7.093806"><ele></ele><time>2019-8-28T16:47:46Z</time></trkpt>
<trkpt lat="46.537978" lon="7.092538"><ele></ele><time>2019-8-28T16:47:49Z</time></trkpt>
<trkpt lat="46.535509" lon="7.091107"><ele></ele><time>2019-8-28T16:47:52Z</time></trkpt>
<trkpt lat="46.537034" lon="7.092909"><ele></ele><time>2019-8-28T16:47:55Z</time></trkpt>
<trkpt lat="46.537153" lon="7.093586"><ele></ele><time>2019-8-28T16:47:58Z</time></trkpt>
<trkpt lat="46.538489" lon="7.095037"><ele></ele><time>2019-8-28T16:48:1Z</time></trkpt>
<trkpt lat="46.546039" lon="7.098979"><ele></ele><time>2019-8-28T16:48:4Z</time></trkpt>
<trkpt lat="46.549820" lon="7.099920"><ele></ele><time>2019-8-28T16:48:7Z</time></trkpt>
<trkpt lat="46.550029" lon="7.100531"><ele></ele><time>2019-8-28T16:48:10Z</time></trkpt>
<trkpt lat="46.549795" lon="7.100311"><ele></ele><time>2019-8-28T16:48:13Z</time></trkpt>
<trkpt lat="46.550812" lon="7.100592"><ele></ele><time>2019-8-28T16:48:16Z</time></trkpt>
<trkpt lat="46.553165" lon="7.102298"><ele></ele><time>2019-8-28T16:48:19Z</time></trkpt>
<trkpt lat="46.556541" lon="7.103294"><ele></ele><time>2019-8-28T16:48:22Z</time></trkpt>
<trkpt lat="46.557115" lon="7.102782"><ele></ele><time>2019-8-28T16:48:25Z</time></trkpt>
<trkpt lat="46.557468" lon="7.103184"><ele></ele><time>2019-8-28T16:48:28Z</time></trkpt>
<trkpt lat="46.558932" lon="7.102562"><ele></ele><time>2019-8-28T16:48:31Z</time></trkpt>
<trkpt lat="46.560049" lon="7.102999"><ele></ele><time>2019-8-28T16:48:34Z</time></trkpt>
<trkpt lat="46.559715" lon="7.102766"><ele></ele><time>2019-8-28T16:48:37Z</time></trkpt>
<trkpt lat="46.560093" lon="7.102907"><ele></ele><time>2019-8-28T16:48:40Z</time></trkpt>
<trkpt lat="46.560414" lon="7.101705"><ele></ele><time>2019-8-28T16:48:43Z</time></trkpt>
<trkpt lat="46.560193" lon="7.100259"><ele></ele><time>2019-8-28T16:48:46Z</time></trkpt>
<trkpt lat="46.561444" lon="7.100447"><ele></ele><time>2019-8-28T16:48:49Z</time></trkpt>
<trkpt lat="46.565825" lon="7.097341"><ele></ele><time>2019-8-28T16:48:52Z</time></trkpt>
<trkpt lat="46.566970" lon="7.095195"><ele></ele><time>2019-8-28T16:48:55Z</time></trkpt>
<trkpt lat="46.567876" lon="7.094472"><ele></ele><time>2019-8-28T16:48:58Z</time></trkpt>
<trkpt lat="46.569023" lon="7.092756"><ele></ele><time>2019-8-28T16:49:1Z</time></trkpt>
<trkpt lat="46.571334" lon="7.092558"><ele></ele><time>2019-8-28T16:49:4Z</time></trkpt>
<trkpt lat="46.572150" lon="7.091836"><ele></ele><time>2019-8-28T16:49:7Z</time></trkpt>
<trkpt lat="46.575343" lon="7.091645"><ele></ele><time>2019-8-28T16:49:10Z</time></trkpt>
<trkpt lat="46.577550" lon="7.092649"><ele></ele><time>2019-8-28T16:49:13Z</time></trkpt>
<trkpt lat="46.578018" lon="7.092515"><ele></ele><time>2019-8-28T16:49:16Z</time></trkpt>
<trkpt lat="46.579117" lon="7.093056"><ele></ele><time>2019-8-28T16:49:19Z</time></trkpt>
<trkpt lat="46.579836" lon="7.092960"><ele></ele><time>2019-8-28T16:49:22Z</time></trkpt>
<trkpt lat="46.581901" lon="7.094487"><ele></ele><time>2019-8-28T16:49:25Z</time></trkpt>
<trkpt lat="46.582404" lon="7.094392"><ele></ele><time>2019-8-28T16:49:28Z</time></trkpt>
<trkpt lat="46.582708" lon="7.093894"><ele></ele><time>2019-8-28T16:49:31Z</time></trkpt>
<trkpt lat="46.583421" lon="7.094372"><ele></ele><time>2019-8-28T16:49:34Z</time></trkpt>
<trkpt lat="46.584227" lon="7.096259"><ele></ele><time>2019-8-28T16:49:37Z</time></trkpt>
<trkpt lat="46.585944" lon="7.098871"><ele></ele><time>2019-8-28T16:49:40Z</time></trkpt>
<trkpt lat="46.587802" lon="7.100699"><ele></ele><time>2019-8-28T16:49:43Z</time></trkpt>
<trkpt lat="46.590036" lon="7.101442"><ele></ele><time>2019-8-28T16:49:46Z</time></trkpt>
<trkpt lat="46.593634" lon="7.098522"><ele></ele><time>2019-8-28T16:49:49Z</time></trkpt>
<trkpt lat="46.594390" lon="7.098596"><ele></ele><time>2019-8-28T16:49:52Z</time></trkpt>
<trkpt lat="46.595193" lon="7.099269"><ele></ele><time>2019-8-28T16:49:55Z</time></trkpt>
<trkpt lat="46.596892" lon="7.098932"><ele></ele><time>2019-8-28T16:49:58Z</time></trkpt>
<trkpt lat="46.602155" lon="7.096171"><ele></ele><time>2019-8-28T16:50:1Z</time></trkpt>
<trkpt lat="46.602484" lon="7.094995"><ele></ele><time>2019-8-28T16:50:4Z</time></trkpt>
<trkpt lat="46.603067" lon="7.094404"><ele></ele><time>2019-8-28T16:50:7Z</time></trkpt>
<trkpt lat="46.602298" lon="7.092868"><ele></ele><time>2019-8-28T16:50:10Z</time></trkpt>
<trkpt lat="46.603176" lon="7.091727"><ele></ele><time>2019-8-28T16:50:13Z</time></trkpt>
<trkpt lat="46.603065" lon="7.090723"><ele></ele><time>2019-8-28T16:50:16Z</time></trkpt>
<trkpt lat="46.603421" lon="7.089389"><ele></ele><time>2019-8-28T16:50:19Z</time></trkpt>
<trkpt lat="46.603744" lon="7.089139"><ele></ele><time>2019-8-28T16:50:22Z</time></trkpt>
<trkpt lat="46.604231" lon="7.089541"><ele></ele><time>2019-8-28T16:50:25Z</time></trkpt>
<trkpt lat="46.605451" lon="7.088528"><ele></ele><time>2019-8-28T16:50:28Z</time></trkpt>
<trkpt lat="46.605904" lon="7.086658"><ele></ele><time>2019-8-28T16:50:31Z</time></trkpt>
<trkpt lat="46.606880" lon="7.085099"><ele></ele><time>2019-8-28T16:50:34Z</time></trkpt>
<trkpt lat="46.611315" lon="7.088111"><ele></ele><time>2019-8-28T16:50:37Z</time></trkpt>
<trkpt lat="46.611245" lon="7.088791"><ele></ele><time>2019-8-28T16:50:40Z</time></trkpt>
<trkpt lat="46.613202" lon="7.090357"><ele></ele><time>2019-8-28T16:50:43Z</time></trkpt>
<trkpt lat="46.616127" lon="7.091017"><ele></ele><time>2019-8-28T16:50:46Z</time></trkpt>
<trkpt lat="46.617790" lon="7.090510"><ele></ele><time>2019-8-28T16:50:49Z</time></trkpt>
<trkpt lat="46.620386" lon="7.086198"><ele></ele><time>2019-8-28T16:50:52Z</time></trkpt>
<trkpt lat="46.621473" lon="7.085917"><ele></ele><time>2019-8-28T16:50:55Z</time></trkpt>
<trkpt lat="46.621984" lon="7.085169"><ele></ele><time>2019-8-28T16:50:58Z</time></trkpt>
<trkpt lat="46.623379" lon="7.085643"><ele></ele><time>2019-8-28T16:51:1Z</time></trkpt>
<trkpt lat="46.624357" lon="7.084801"><ele></ele><time>2019-8-28T16:51:4Z</time></trkpt>
<trkpt lat="46.624952" lon="7.084980"><ele></ele><time>2019-8-28T16:51:7Z</time></trkpt>
<trkpt lat="46.628308" lon="7.088314"><ele></ele><time>2019-8-28T16:51:10Z</time></trkpt>
<trkpt lat="46.629124" lon="7.087460"><ele></ele><time>2019-8-28T16:51:13Z</time></trkpt>
<trkpt lat="46.629790" lon="7.087338"><ele></ele><time>2019-8-28T16:51:16Z</time></trkpt>
<trkpt lat="46.630435" lon="7.086668"><ele></ele><time>2019-8-28T16:51:19Z</time></trkpt>
<trkpt lat="46.631406" lon="7.086374"><ele></ele><time>2019-8-28T16:51:22Z</time></trkpt>
<trkpt lat="46.635093" lon="7.083033"><ele></ele><time>2019-8-28T16:51:25Z</time></trkpt>
<trkpt lat="46.635930" lon="7.080363"><ele></ele><time>2019-8-28T16:51:28Z</time></trkpt>
<trkpt lat="46.636895" lon="7.081193"><ele></ele><time>2019-8-28T16:51:31Z</time></trkpt>
<trkpt lat="46.638649" lon="7.081051"><ele></ele><time>2019-8-28T16:51:34Z</time></trkpt>
<trkpt lat="46.639187" lon="7.080590"><ele></ele><time>2019-8-28T16:51:37Z</time></trkpt>
<trkpt lat="46.641135" lon="7.076450"><ele></ele><time>2019-8-28T16:51:40Z</time></trkpt>
<trkpt lat="46.641825" lon="7.075622"><ele></ele><time>2019-8-28T16:51:43Z</time></trkpt>
<trkpt lat="46.645900" lon="7.075752"><ele></ele><time>2019-8-28T16:51:46Z</time></trkpt>
<trkpt lat="46.645884" lon="7.076222"><ele></ele><time>2019-8-28T16:51:49Z</time></trkpt>
<trkpt lat="46.646299" lon="7.076794"><ele></ele><time>2019-8-28T16:51:52Z</time></trkpt>
<trkpt lat="46.645996" lon="7.077710"><ele></ele><time>2019-8-28T16:51:55Z</time></trkpt>
<trkpt lat="46.646236" lon="7.076677"><ele></ele><time>2019-8-28T16:51:58Z</time></trkpt>
<trkpt lat="46.645811" lon="7.076105"><ele></ele><time>2019-8-28T16:52:1Z</time></trkpt>
<trkpt lat="46.647432" lon="7.073808"><ele></ele><time>2019-8-28T16:52:4Z</time></trkpt>
<trkpt lat="46.648331" lon="7.073436"><ele></ele><time>2019-8-28T16:52:7Z</time></trkpt>
<trkpt lat="46.649547" lon="7.071207"><ele></ele><time>2019-8-28T16:52:10Z</time></trkpt>
<trkpt lat="46.650903" lon="7.070688"><ele></ele><time>2019-8-28T16:52:13Z</time></trkpt>
<trkpt lat="46.653295" lon="7.067406"><ele></ele><time>2019-8-28T16:52:16Z</time></trkpt>
<trkpt lat="46.654410" lon="7.064537"><ele></ele><time>2019-8-28T16:52:19Z</time></trkpt>
<trkpt lat="46.655866" lon="7.064371"><ele></ele><time>2019-8-28T16:52:22Z</time></trkpt>
<trkpt lat="46.656243" lon="7.061311"><ele></ele><time>2019-8-28T16:52:25Z</time></trkpt>
<trkpt lat="46.656005" lon="7.059915"><ele></ele><time>2019-8-28T16:52:28Z</time></trkpt>
<trkpt lat="46.657666" lon="7.059237"><ele></ele><time>2019-8-28T16:52:31Z</time></trkpt>
<trkpt lat="46.658024" lon="7.058516"><ele></ele><time>2019-8-28T16:52:34Z</time></trkpt>
<trkpt lat="46.658141" lon="7.055771"><ele></ele><time>2019-8-28T16:52:37Z</time></trkpt>
<trkpt lat="46.657797" lon="7.055120"><ele></ele><time>2019-8-28T16:52:40Z</time></trkpt>
<trkpt lat="46.657927" lon="7.053734"><ele></ele><time>2019-8-28T16:52:43Z</time></trkpt>
<trkpt lat="46.657483" lon="7.052862"><ele></ele><time>2019-8-28T16:52:46Z</time></trkpt>
<trkpt lat="46.656888" lon="7.052553"><ele></ele><time>2019-8-28T16:52:49Z</time></trkpt>
<trkpt lat="46.655703" lon="7.050537"><ele></ele><time>2019-8-28T16:52:52Z</time></trkpt>
<trkpt lat="46.655543" lon="7.048369"><ele></ele><time>2019-8-28T16:52:55Z</time></trkpt>
<trkpt lat="46.656042" lon="7.047098"><ele></ele><time>2019-8-28T16:52:58Z</time></trkpt>
<trkpt lat="46.658267" lon="7.045370"><ele></ele><time>2019-8-28T16:53:1Z</time></trkpt>
<trkpt lat="46.658417" lon="7.044664"><ele></ele><time>2019-8-28T16:53:4Z</time></trkpt>
<trkpt lat="46.658227" lon="7.044090"><ele></ele><time>2019-8-28T16:53:7Z</time></trkpt>
<trkpt lat="46.656371" lon="7.043464"><ele></ele><time>2019-8-28T16:53:10Z</time></trkpt>
<trkpt lat="46.655493" lon="7.041929"><ele></ele><time>2019-8-28T16:53:13Z</time></trkpt>
<trkpt lat="46.654744" lon="7.038720"><ele></ele><time>2019-8-28T16:53:16Z</time></trkpt>
<trkpt lat="46.655065" lon="7.035308"><ele></ele><time>2019-8-28T16:53:19Z</time></trkpt>
<trkpt lat="46.654783" lon="7.031940"><ele></ele><time>2019-8-28T16:53:22Z</time></trkpt>
<trkpt lat="46.655927" lon="7.027345"><ele></ele><time>2019-8-28T16:53:25Z</time></trkpt>
<trkpt lat="46.657319" lon="7.024029"><ele></ele><time>2019-8-28T16:53:28Z</time></trkpt>
<trkpt lat="46.657503" lon="7.022735"><ele></ele><time>2019-8-28T16:53:31Z</time></trkpt>
<trkpt lat="46.657219" lon="7.021404"><ele></ele><time>2019-8-28T16:53:34Z</time></trkpt>
<trkpt lat="46.657636" lon="7.019729"><ele></ele><time>2019-8-28T16:53:37Z</time></trkpt>
<trkpt lat="46.658398" lon="7.019135"><ele></ele><time>2019-8-28T16:53:40Z</time></trkpt>
<trkpt lat="46.657892" lon="7.018433"><ele></ele><time>2019-8-28T16:53:43Z</time></trkpt>
<trkpt lat="46.658723" lon="7.016990"><ele></ele><time>2019-8-28T16:53:46Z</time></trkpt>
<trkpt lat="46.658758" lon="7.014376"><ele></ele><time>2019-8-28T16:53:49Z</time></trkpt>
<trkpt lat="46.659213" lon="7.013341"><ele></ele><time>2019-8-28T16:53:52Z</time></trkpt>
<trkpt lat="46.659324" lon="7.011811"><ele></ele><time>2019-8-28T16:53:55Z</time></trkpt>
<trkpt lat="46.659827" lon="7.011441"><ele></ele><time>2019-8-28T16:53:58Z</time></trkpt>
<trkpt lat="46.660580" lon="7.013264"><ele></ele><time>2019-8-28T16:54:1Z</time></trkpt>
<trkpt lat="46.660814" lon="7.013276"><ele></ele><time>2019-8-28T16:54:4Z</time></trkpt>
<trkpt lat="46.662148" lon="7.009058"><ele></ele><time>2019-8-28T16:54:7Z</time></trkpt>
<trkpt lat="46.662390" lon="7.011225"><ele></ele><time>2019-8-28T16:54:10Z</time></trkpt>
<trkpt lat="46.663771" lon="7.012468"><ele></ele><time>2019-8-28T16:54:13Z</time></trkpt>
<trkpt lat="46.663779" lon="7.009933"><ele></ele><time>2019-8-28T16:54:16Z</time></trkpt>
<trkpt lat="46.664331" lon="7.008426"><ele></ele><time>2019-8-28T16:54:19Z</time></trkpt>
<trkpt lat="46.666010" lon="7.012307"><ele></ele><time>2019-8-28T16:54:22Z</time></trkpt>
<trkpt lat="46.666868" lon="7.015763"><ele></ele><time>2019-8-28T16:54:25Z</time></trkpt>
<trkpt lat="46.667943" lon="7.016957"><ele></ele><time>2019-8-28T16:54:28Z</time></trkpt>
<trkpt lat="46.669394" lon="7.020095"><ele></ele><time>2019-8-28T16:54:31Z</time></trkpt>
<trkpt lat="46.670014" lon="7.022364"><ele></ele><time>2019-8-28T16:54:34Z</time></trkpt>
<trkpt lat="46.670767" lon="7.023926"><ele></ele><time>2019-8-28T16:54:37Z</time></trkpt>
<trkpt lat="46.672601" lon="7.026303"><ele></ele><time>2019-8-28T16:54:40Z</time></trkpt>
<trkpt lat="46.672658" lon="7.027126"><ele></ele><time>2019-8-28T16:54:43Z</time></trkpt>
<trkpt lat="46.673342" lon="7.027043"><ele></ele><time>2019-8-28T16:54:46Z</time></trkpt>
<trkpt lat="46.673677" lon="7.027589"><ele></ele><time>2019-8-28T16:54:49Z</time></trkpt>
<trkpt lat="46.674186" lon="7.026709"><ele></ele><time>2019-8-28T16:54:52Z</time></trkpt>
<trkpt lat="46.673437" lon="7.021069"><ele></ele><time>2019-8-28T16:54:55Z</time></trkpt>
<trkpt lat="46.673873" lon="7.022151"><ele></ele><time>2019-8-28T16:54:58Z</time></trkpt>
<trkpt lat="46.675561" lon="7.023732"><ele></ele><time>2019-8-28T16:55:1Z</time></trkpt>
<trkpt lat="46.676091" lon="7.023571"><ele></ele><time>2019-8-28T16:55:4Z</time></trkpt>
<trkpt lat="46.678062" lon="7.026379"><ele></ele><time>2019-8-28T16:55:7Z</time></trkpt>
<trkpt lat="46.679586" lon="7.029975"><ele></ele><time>2019-8-28T16:55:10Z</time></trkpt>
<trkpt lat="46.679556" lon="7.031478"><ele></ele><time>2019-8-28T16:55:13Z</time></trkpt>
<trkpt lat="46.680046" lon="7.032703"><ele></ele><time>2019-8-28T16:55:16Z</time></trkpt>
<trkpt lat="46.680314" lon="7.034818"><ele></ele><time>2019-8-28T16:55:19Z</time></trkpt>
<trkpt lat="46.681407" lon="7.035947"><ele></ele><time>2019-8-28T16:55:22Z</time></trkpt>
<trkpt lat="46.681060" lon="7.036996"><ele></ele><time>2019-8-28T16:55:25Z</time></trkpt>
<trkpt lat="46.681410" lon="7.039320"><ele></ele><time>2019-8-28T16:55:28Z</time></trkpt>
<trkpt lat="46.681061" lon="7.040002"><ele></ele><time>2019-8-28T16:55:31Z</time></trkpt>
<trkpt lat="46.680181" lon="7.040466"><ele></ele><time>2019-8-28T16:55:34Z</time></trkpt>
<trkpt lat="46.680016" lon="7.044610"><ele></ele><time>2019-8-28T16:55:37Z</time></trkpt>
<trkpt lat="46.680476" lon="7.045077"><ele></ele><time>2019-8-28T16:55:40Z</time></trkpt>
<trkpt lat="46.681997" lon="7.045380"><ele></ele><time>2019-8-28T16:55:43Z</time></trkpt>
<trkpt lat="46.682883" lon="7.046524"><ele></ele><time>2019-8-28T16:55:46Z</time></trkpt>
<trkpt lat="46.682298" lon="7.048920"><ele></ele><time>2019-8-28T16:55:49Z</time></trkpt>
<trkpt lat="46.684760" lon="7.050824"><ele></ele><time>2019-8-28T16:55:52Z</time></trkpt>
<trkpt lat="46.684979" lon="7.051711"><ele></ele><time>2019-8-28T16:55:55Z</time></trkpt>
<trkpt lat="46.686112" lon="7.051716"><ele></ele><time>2019-8-28T16:55:58Z</time></trkpt>
<trkpt lat="46.686952" lon="7.052560"><ele></ele><time>2019-8-28T16:56:1Z</time></trkpt>
<trkpt lat="46.687433" lon="7.053811"><ele></ele><time>2019-8-28T16:56:4Z</time></trkpt>
<trkpt lat="46.687338" lon="7.055210"><ele></ele><time>2019-8-28T16:56:7Z</time></trkpt>
<trkpt lat="46.687683" lon="7.056032"><ele></ele><time>2019-8-28T16:56:10Z</time></trkpt>
<trkpt lat="46.688590" lon="7.055424"><ele></ele><time>2019-8-28T16:56:13Z</time></trkpt>
<trkpt lat="46.689679" lon="7.055704"><ele></ele><time>2019-8-28T16:56:16Z</time></trkpt>
<trkpt lat="46.689903" lon="7.055401"><ele></ele><time>2019-8-28T16:56:19Z</time></trkpt>
<trkpt lat="46.690633" lon="7.055710"><ele></ele><time>2019-8-28T16:56:22Z</time></trkpt>
<trkpt lat="46.690916" lon="7.057080"><ele></ele><time>2019-8-28T16:56:25Z</time></trkpt>
<trkpt lat="46.690831" lon="7.058506"><ele></ele><time>2019-8-28T16:56:28Z</time></trkpt>
<trkpt lat="46.691421" lon="7.062738"><ele></ele><time>2019-8-28T16:56:31Z</time></trkpt>
<trkpt lat="46.691837" lon="7.063545"><ele></ele><time>2019-8-28T16:56:34Z</time></trkpt>
<trkpt lat="46.693126" lon="7.064438"><ele></ele><time>2019-8-28T16:56:37Z</time></trkpt>
<trkpt lat="46.693742" lon="7.065663"><ele></ele><time>2019-8-28T16:56:40Z</time></trkpt>
<trkpt lat="46.694392" lon="7.066181"><ele></ele><time>2019-8-28T16:56:43Z</time></trkpt>
<trkpt lat="46.694091" lon="7.067896"><ele></ele><time>2019-8-28T16:56:46Z</time></trkpt>
<trkpt lat="46.695549" lon="7.067886"><ele></ele><time>2019-8-28T16:56:49Z</time></trkpt>
<trkpt lat="46.696778" lon="7.069813"><ele></ele><time>2019-8-28T16:56:52Z</time></trkpt>
<trkpt lat="46.696980" lon="7.068268"><ele></ele><time>2019-8-28T16:56:55Z</time></trkpt>
<trkpt lat="46.697535" lon="7.067545"><ele></ele><time>2019-8-28T16:56:58Z</time></trkpt>
<trkpt lat="46.697854" lon="7.065804"><ele></ele><time>2019-8-28T16:57:1Z</time></trkpt>
<trkpt lat="46.698483" lon="7.065630"><ele></ele><time>2019-8-28T16:57:4Z</time></trkpt>
<trkpt lat="46.700534" lon="7.063027"><ele></ele><time>2019-8-28T16:57:7Z</time></trkpt>
<trkpt lat="46.702284" lon="7.061877"><ele></ele><time>2019-8-28T16:57:10Z</time></trkpt>
<trkpt lat="46.703156" lon="7.061701"><ele></ele><time>2019-8-28T16:57:13Z</time></trkpt>
<trkpt lat="46.704971" lon="7.058132"><ele></ele><time>2019-8-28T16:57:16Z</time></trkpt>
<trkpt lat="46.706494" lon="7.056251"><ele></ele><time>2019-8-28T16:57:19Z</time></trkpt>
<trkpt lat="46.706443" lon="7.057389"><ele></ele><time>2019-8-28T16:57:22Z</time></trkpt>
<trkpt lat="46.705504" lon="7.058991"><ele></ele><time>2019-8-28T16:57:25Z</time></trkpt>
<trkpt lat="46.706544" lon="7.066136"><ele></ele><time>2019-8-28T16:57:28Z</time></trkpt>
<trkpt lat="46.706262" lon="7.067943"><ele></ele><time>2019-8-28T16:57:31Z</time></trkpt>
<trkpt lat="46.706401" lon="7.069014"><ele></ele><time>2019-8-28T16:57:34Z</time></trkpt>
<trkpt lat="46.705295" lon="7.072056"><ele></ele><time>2019-8-28T16:57:37Z</time></trkpt>
<trkpt lat="46.705448" lon="7.074774"><ele></ele><time>2019-8-28T16:57:40Z</time></trkpt>
<trkpt lat="46.705029" lon="7.076111"><ele></ele><time>2019-8-28T16:57:43Z</time></trkpt>
<trkpt lat="46.705018" lon="7.078020"><ele></ele><time>2019-8-28T16:57:46Z</time></trkpt>
<trkpt lat="46.704125" lon="7.080406"><ele></ele><time>2019-8-28T16:57:49Z</time></trkpt>
<trkpt lat="46.704536" lon="7.082064"><ele></ele><time>2019-8-28T16:57:52Z</time></trkpt>
<trkpt lat="46.706495" lon="7.081450"><ele></ele><time>2019-8-28T16:57:55Z</time></trkpt>
<trkpt lat="46.707998" lon="7.081845"><ele></ele><time>2019-8-28T16:57:58Z</time></trkpt>
<trkpt lat="46.708913" lon="7.081146"><ele></ele><time>2019-8-28T16:58:1Z</time></trkpt>
<trkpt lat="46.711559" lon="7.084254"><ele></ele><time>2019-8-28T16:58:4Z</time></trkpt>
<trkpt lat="46.711309" lon="7.084936"><ele></ele><time>2019-8-28T16:58:7Z</time></trkpt>
<trkpt lat="46.711482" lon="7.085667"><ele></ele><time>2019-8-28T16:58:10Z</time></trkpt>
<trkpt lat="46.712647" lon="7.087137"><ele></ele><time>2019-8-28T16:58:13Z</time></trkpt>
<trkpt lat="46.714565" lon="7.087726"><ele></ele><time>2019-8-28T16:58:16Z</time></trkpt>
<trkpt lat="46.715027" lon="7.088822"><ele></ele><time>2019-8-28T16:58:19Z</time></trkpt>
<trkpt lat="46.715055" lon="7.092091"><ele></ele><time>2019-8-28T16:58:22Z</time></trkpt>
<trkpt lat="46.715600" lon="7.093696"><ele></ele><time>2019-8-28T16:58:25Z</time></trkpt>
<trkpt lat="46.715906" lon="7.096755"><ele></ele><time>2019-8-28T16:58:28Z</time></trkpt>
</trkseg></trk></gpx>